Terminal Aerodrome Forecast
Issued by NWS Austin/San Antonio, TX

Home | Current Version | Previous Version | Text Only | Print | Product List | Glossary On
Versions: 1 2 3 4 5 6 7 8 9 10 11 12 13 14 15 16 17 18 19 20 21 22 23 24
199
FTUS44 KEWX 200525
TAFSAT
TAF
KSAT 200525Z 2006/2112 15008KT P6SM FEW060 FEW250
     FM201000 17005KT P6SM SCT015
      TEMPO 2010/2013 BKN015
     FM201500 17007KT P6SM SCT050=

USA.gov is the U.S. government's official web portal to all federal, state and local government web resources and services.